Airfield :
LOGIN :

Register | Disclaimer

   EN    FR    IT 

 










Legend :    VFR   Marginal VFR   IFR   Intensive IFR   Very Intensive IFR
Visi :
Ceiling :
>= 8 km
>= 3000ft
5 to 8 km
1000 to 3000 ft
1500m to 5 km
500 to 1000 ft
800 to 1500m
200 to 500 ft
< 800m
< 200 ft
Symbols :   Thunderstorms  Fog  Heavy snow  Heavy precipitations  Wind > 20 kt
SIGMETs :     Misc.  Thunderstorms  Icing  Turbulence  Mountain Waves  Volcanic Ashes







- Airport Elevation : 220 ft
- IATA code : CWL
- Download approach charts


EGFF - Cardiff Rhoose

CURRENT METAR :
  • 190520Z AUTO 07022G35KT 9999 OVC013 06/04 Q1022

EXPIRED METARs :
  • 190450Z AUTO 08015G29KT 050V110 9999 OVC014 06/03 Q1022
  • 190420Z AUTO 07013KT 9999 BKN021 05/02 Q1023
  • 190350Z AUTO 08009KT 030V100 9999 SCT024 05/02 Q1023
  • 190320Z AUTO 07013KT 9999 NCD 05/01 Q1023
  • 190250Z AUTO 07017KT 9999 NCD 05/01 Q1023

TAF TAF EGFF
Valid from the 19 at 06:00 until the 20 at 06:00 UTC


190456Z 1906/2006 07014KT 9999 BKN014
BECMG 1906/1909 SCT025
TEMPO 1906/2006 08017G27KT
PROB30
TEMPO 1906/1908 8000 -DZ
ATIS : +44 1446 729 319
No reported NOTAMs for that airfield.



MET'MAP, your aeronautical weather chart ! - Copyright ORBIFLY December 2007 - Disclaimer

ORBIFLY MET'MAP TEAM :

Programming & Development : Alexandra Zaïnal
Concept & Development : Baudouin d'Aumeries
Co-Development & Prog : Marc-Olivier Méhu
Technical & hardware support : Manuel Goepfert

Contact : metmap@orbifly.com




SOURCES & CREDITS :

   NOAA